sensor_id;sensor_type;location;lat;lon;timestamp;pressure;altitude;pressure_sealevel;temperature;humidity
55032;BME280;40928;51.076;7.950;2023-01-09T00:00:00;95030.97;;;5.78;100.00
55032;BME280;40928;51.076;7.950;2023-01-09T00:02:25;95032.56;;;5.79;100.00
55032;BME280;40928;51.076;7.950;2023-01-09T00:05:16;95030.69;;;5.74;100.00
55032;BME280;40928;51.076;7.950;2023-01-09T00:07:45;95029.09;;;5.73;100.00
55032;BME280;40928;51.076;7.950;2023-01-09T00:10:12;95028.31;;;5.73;100.00
55032;BME280;40928;51.076;7.950;2023-01-09T00:12:41;95023.56;;;5.75;100.00
55032;BME280;40928;51.076;7.950;2023-01-09T00:15:08;95016.63;;;5.69;100.00
55032;BME280;40928;51.076;7.950;2023-01-09T00:17:35;95008.94;;;5.67;100.00
55032;BME280;40928;51.076;7.950;2023-01-09T00:20:00;95010.28;;;5.70;100.00
55032;BME280;40928;51.076;7.950;2023-01-09T00:22:26;95009.22;;;5.71;100.00
55032;BME280;40928;51.076;7.950;2023-01-09T00:24:51;95014.28;;;5.77;100.00
55032;BME280;40928;51.076;7.950;2023-01-09T00:27:20;95012.97;;;5.80;100.00
55032;BME280;40928;51.076;7.950;2023-01-09T00:29:48;95006.34;;;5.77;100.00
55032;BME280;40928;51.076;7.950;2023-01-09T00:32:14;95017.72;;;5.73;100.00
55032;BME280;40928;51.076;7.950;2023-01-09T00:34:41;95023.84;;;5.78;100.00
55032;BME280;40928;51.076;7.950;2023-01-09T00:37:10;95016.66;;;5.79;100.00
55032;BME280;40928;51.076;7.950;2023-01-09T00:39:37;95021.44;;;5.77;100.00
55032;BME280;40928;51.076;7.950;2023-01-09T00:42:04;95018.25;;;5.75;100.00
55032;BME280;40928;51.076;7.950;2023-01-09T00:44:37;95023.56;;;5.75;100.00
55032;BME280;40928;51.076;7.950;2023-01-09T00:47:10;95016.63;;;5.69;100.00
55032;BME280;40928;51.076;7.950;2023-01-09T00:49:38;95022.44;;;5.66;100.00
55032;BME280;40928;51.076;7.950;2023-01-09T00:52:05;95017.13;;;5.66;100.00
55032;BME280;40928;51.076;7.950;2023-01-09T00:54:32;95022.91;;;5.52;100.00
55032;BME280;40928;51.076;7.950;2023-01-09T00:56:58;95023.63;;;5.42;100.00
55032;BME280;40928;51.076;7.950;2023-01-09T00:59:24;95035.81;;;5.43;100.00
55032;BME280;40928;51.076;7.950;2023-01-09T01:01:50;95038.06;;;5.24;100.00
55032;BME280;40928;51.076;7.950;2023-01-09T01:04:16;95033.31;;;5.26;100.00
55032;BME280;40928;51.076;7.950;2023-01-09T01:07:00;95037.84;;;5.31;100.00
55032;BME280;40928;51.076;7.950;2023-01-09T01:09:43;95031.50;;;5.32;100.00
55032;BME280;40928;51.076;7.950;2023-01-09T01:12:09;95017.78;;;5.35;100.00
55032;BME280;40928;51.076;7.950;2023-01-09T01:14:36;95031.22;;;5.28;100.00
55032;BME280;40928;51.076;7.950;2023-01-09T01:17:03;95029.63;;;5.27;100.00
55032;BME280;40928;51.076;7.950;2023-01-09T01:19:29;95036.19;;;5.20;100.00
55032;BME280;40928;51.076;7.950;2023-01-09T01:21:55;95037.47;;;5.17;100.00
55032;BME280;40928;51.076;7.950;2023-01-09T01:24:21;95039.28;;;5.11;100.00
55032;BME280;40928;51.076;7.950;2023-01-09T01:26:47;95041.09;;;5.06;100.00
55032;BME280;40928;51.076;7.950;2023-01-09T01:29:12;95036.84;;;5.05;100.00
55032;BME280;40928;51.076;7.950;2023-01-09T01:31:38;95039.56;;;5.15;100.00
55032;BME280;40928;51.076;7.950;2023-01-09T01:34:04;95046.88;;;5.02;100.00
55032;BME280;40928;51.076;7.950;2023-01-09T01:36:29;95042.63;;;4.96;100.00
55032;BME280;40928;51.076;7.950;2023-01-09T01:39:24;95044.94;;;4.93;100.00
55032;BME280;40928;51.076;7.950;2023-01-09T01:41:56;95035.69;;;4.90;100.00
55032;BME280;40928;51.076;7.950;2023-01-09T01:55:40;95028.75;;;4.84;100.00
55032;BME280;40928;51.076;7.950;2023-01-09T01:58:08;95024.56;;;4.88;100.00
55032;BME280;40928;51.076;7.950;2023-01-09T02:00:38;95023.97;;;4.81;100.00
55032;BME280;40928;51.076;7.950;2023-01-09T02:03:05;95025.06;;;4.85;100.00
55032;BME280;40928;51.076;7.950;2023-01-09T02:05:32;95028.72;;;4.79;100.00
55032;BME280;40928;51.076;7.950;2023-01-09T02:07:58;95032.16;;;4.79;100.00
55032;BME280;40928;51.076;7.950;2023-01-09T02:10:24;95035.06;;;4.78;100.00
55032;BME280;40928;51.076;7.950;2023-01-09T02:12:49;95021.13;;;4.87;100.00
55032;BME280;40928;51.076;7.950;2023-01-09T02:15:16;95018.16;;;4.84;100.00
55032;BME280;40928;51.076;7.950;2023-01-09T02:20:44;95020.22;;;4.77;100.00
55032;BME280;40928;51.076;7.950;2023-01-09T02:26:26;95027.47;;;4.86;100.00
55032;BME280;40928;51.076;7.950;2023-01-09T02:34:50;95016.66;;;4.93;100.00
55032;BME280;40928;51.076;7.950;2023-01-09T02:37:45;95019.97;;;4.78;100.00
55032;BME280;40928;51.076;7.950;2023-01-09T02:40:30;95026.06;;;4.79;100.00
55032;BME280;40928;51.076;7.950;2023-01-09T02:42:57;95029.75;;;4.78;100.00
55032;BME280;40928;51.076;7.950;2023-01-09T02:45:24;95023.38;;;4.73;100.00
55032;BME280;40928;51.076;7.950;2023-01-09T02:47:50;95022.88;;;4.77;100.00
55032;BME280;40928;51.076;7.950;2023-01-09T02:50:59;95038.53;;;4.83;100.00
55032;BME280;40928;51.076;7.950;2023-01-09T02:59:19;95024.75;;;4.81;100.00
55032;BME280;40928;51.076;7.950;2023-01-09T03:02:26;95033.19;;;4.78;100.00
55032;BME280;40928;51.076;7.950;2023-01-09T03:05:18;95032.97;;;4.80;100.00
55032;BME280;40928;51.076;7.950;2023-01-09T03:10:51;95035.53;;;4.75;100.00
55032;BME280;40928;51.076;7.950;2023-01-09T03:13:18;95037.63;;;4.72;100.00
55032;BME280;40928;51.076;7.950;2023-01-09T03:15:47;95036.03;;;4.71;100.00
55032;BME280;40928;51.076;7.950;2023-01-09T03:18:17;95030.53;;;4.73;100.00
55032;BME280;40928;51.076;7.950;2023-01-09T03:20:45;95042.44;;;4.76;100.00
55032;BME280;40928;51.076;7.950;2023-01-09T03:23:11;95049.31;;;4.77;100.00
55032;BME280;40928;51.076;7.950;2023-01-09T03:25:37;95057.84;;;4.84;100.00
55032;BME280;40928;51.076;7.950;2023-01-09T03:28:05;95065.75;;;4.79;100.00
55032;BME280;40928;51.076;7.950;2023-01-09T03:30:33;95070.41;;;4.71;100.00
55032;BME280;40928;51.076;7.950;2023-01-09T03:32:59;95077.06;;;4.74;100.00
55032;BME280;40928;51.076;7.950;2023-01-09T03:35:24;95072.28;;;4.71;100.00
55032;BME280;40928;51.076;7.950;2023-01-09T03:37:50;95082.66;;;4.78;100.00
55032;BME280;40928;51.076;7.950;2023-01-09T03:40:17;95077.25;;;4.67;100.00
55032;BME280;40928;51.076;7.950;2023-01-09T03:42:43;95078.84;;;4.68;100.00
55032;BME280;40928;51.076;7.950;2023-01-09T03:45:08;95077.31;;;4.72;100.00
55032;BME280;40928;51.076;7.950;2023-01-09T03:47:34;95078.06;;;4.68;100.00
55032;BME280;40928;51.076;7.950;2023-01-09T03:49:59;95093.63;;;4.64;100.00
55032;BME280;40928;51.076;7.950;2023-01-09T03:52:25;95097.88;;;4.65;100.00
55032;BME280;40928;51.076;7.950;2023-01-09T03:54:50;95096.19;;;4.59;100.00
55032;BME280;40928;51.076;7.950;2023-01-09T03:57:16;95097.25;;;4.58;100.00
55032;BME280;40928;51.076;7.950;2023-01-09T03:59:41;95103.09;;;4.60;100.00
55032;BME280;40928;51.076;7.950;2023-01-09T04:02:07;95107.88;;;4.63;100.00
55032;BME280;40928;51.076;7.950;2023-01-09T04:04:33;95112.91;;;4.65;100.00
55032;BME280;40928;51.076;7.950;2023-01-09T04:06:58;95119.22;;;4.59;100.00
55032;BME280;40928;51.076;7.950;2023-01-09T04:09:24;95126.31;;;4.58;100.00
55032;BME280;40928;51.076;7.950;2023-01-09T04:11:49;95137.34;;;4.50;100.00
55032;BME280;40928;51.076;7.950;2023-01-09T04:14:15;95136.97;;;4.41;100.00
55032;BME280;40928;51.076;7.950;2023-01-09T04:16:41;95148.72;;;4.50;100.00
55032;BME280;40928;51.076;7.950;2023-01-09T04:19:07;95138.69;;;4.52;100.00
55032;BME280;40928;51.076;7.950;2023-01-09T04:21:32;95137.38;;;4.55;100.00
55032;BME280;40928;51.076;7.950;2023-01-09T04:23:58;95140.53;;;4.52;100.00
55032;BME280;40928;51.076;7.950;2023-01-09T04:26:23;95144.75;;;4.53;100.00
55032;BME280;40928;51.076;7.950;2023-01-09T04:28:48;95147.09;;;4.49;100.00
55032;BME280;40928;51.076;7.950;2023-01-09T04:31:14;95147.09;;;4.49;100.00
55032;BME280;40928;51.076;7.950;2023-01-09T04:33:40;95150.00;;;4.48;100.00
55032;BME280;40928;51.076;7.950;2023-01-09T04:36:05;95147.66;;;4.51;100.00
55032;BME280;40928;51.076;7.950;2023-01-09T04:38:31;95144.38;;;4.44;100.00
55032;BME280;40928;51.076;7.950;2023-01-09T04:40:57;95155.84;;;4.50;100.00
55032;BME280;40928;51.076;7.950;2023-01-09T04:43:23;95154.34;;;4.59;100.00
55032;BME280;40928;51.076;7.950;2023-01-09T04:45:49;95157.97;;;4.53;100.00
55032;BME280;40928;51.076;7.950;2023-01-09T04:48:14;95166.09;;;4.46;100.00
55032;BME280;40928;51.076;7.950;2023-01-09T04:50:40;95168.44;;;4.42;100.00
55032;BME280;40928;51.076;7.950;2023-01-09T04:53:44;95174.19;;;4.39;100.00
55032;BME280;40928;51.076;7.950;2023-01-09T04:56:10;95170.78;;;4.39;100.00
55032;BME280;40928;51.076;7.950;2023-01-09T04:58:35;95172.13;;;4.41;100.00
55032;BME280;40928;51.076;7.950;2023-01-09T05:01:01;95171.00;;;4.37;100.00
55032;BME280;40928;51.076;7.950;2023-01-09T05:03:26;95175.19;;;4.33;100.00
55032;BME280;40928;51.076;7.950;2023-01-09T05:05:54;95185.22;;;4.31;100.00
55032;BME280;40928;51.076;7.950;2023-01-09T05:08:20;95181.03;;;4.35;100.00
55032;BME280;40928;51.076;7.950;2023-01-09T05:10:45;95190.72;;;4.30;100.00
55032;BME280;40928;51.076;7.950;2023-01-09T05:13:11;95195.63;;;4.21;100.00
55032;BME280;40928;51.076;7.950;2023-01-09T05:15:36;95204.06;;;4.18;100.00
55032;BME280;40928;51.076;7.950;2023-01-09T05:18:02;95194.34;;;4.23;100.00
55032;BME280;40928;51.076;7.950;2023-01-09T05:20:27;95191.47;;;4.25;100.00
55032;BME280;40928;51.076;7.950;2023-01-09T05:22:53;95195.09;;;4.19;100.00
55032;BME280;40928;51.076;7.950;2023-01-09T05:25:18;95202.28;;;4.23;100.00
55032;BME280;40928;51.076;7.950;2023-01-09T05:27:44;95198.97;;;4.33;100.00
55032;BME280;40928;51.076;7.950;2023-01-09T05:30:11;95204.19;;;4.28;100.00
55032;BME280;40928;51.076;7.950;2023-01-09T05:32:37;95210.22;;;4.23;100.00
55032;BME280;40928;51.076;7.950;2023-01-09T05:35:03;95209.00;;;4.14;100.00
55032;BME280;40928;51.076;7.950;2023-01-09T05:37:28;95212.47;;;4.15;100.00
55032;BME280;40928;51.076;7.950;2023-01-09T05:39:54;95213.03;;;4.17;100.00
55032;BME280;40928;51.076;7.950;2023-01-09T05:42:19;95212.94;;;4.11;100.00
55032;BME280;40928;51.076;7.950;2023-01-09T05:44:45;95215.88;;;4.15;100.00
55032;BME280;40928;51.076;7.950;2023-01-09T05:47:10;95208.88;;;4.04;100.00
55032;BME280;40928;51.076;7.950;2023-01-09T05:49:36;95218.41;;;4.05;100.00
55032;BME280;40928;51.076;7.950;2023-01-09T05:52:01;95203.66;;;3.92;100.00
55032;BME280;40928;51.076;7.950;2023-01-09T05:54:28;95214.22;;;3.92;100.00
55032;BME280;40928;51.076;7.950;2023-01-09T05:56:54;95208.81;;;3.81;100.00
55032;BME280;40928;51.076;7.950;2023-01-09T05:59:19;95211.19;;;3.83;100.00
55032;BME280;40928;51.076;7.950;2023-01-09T06:01:44;95216.72;;;3.81;100.00
55032;BME280;40928;51.076;7.950;2023-01-09T06:04:10;95215.13;;;3.80;100.00
55032;BME280;40928;51.076;7.950;2023-01-09T06:06:36;95211.91;;;3.78;100.00
55032;BME280;40928;51.076;7.950;2023-01-09T06:09:01;95213.53;;;3.79;100.00
55032;BME280;40928;51.076;7.950;2023-01-09T06:11:28;95218.72;;;3.74;100.00
55032;BME280;40928;51.076;7.950;2023-01-09T06:13:53;95212.09;;;3.72;100.00
55032;BME280;40928;51.076;7.950;2023-01-09T06:16:19;95215.78;;;3.88;100.00
55032;BME280;40928;51.076;7.950;2023-01-09T06:18:44;95230.59;;;3.89;100.00
55032;BME280;40928;51.076;7.950;2023-01-09T06:21:11;95231.22;;;3.79;100.00
55032;BME280;40928;51.076;7.950;2023-01-09T06:23:37;95235.22;;;3.81;100.00
55032;BME280;40928;51.076;7.950;2023-01-09T06:26:03;95230.88;;;3.75;100.00
55032;BME280;40928;51.076;7.950;2023-01-09T06:28:28;95238.56;;;3.77;100.00
55032;BME280;40928;51.076;7.950;2023-01-09T06:30:54;95233.28;;;3.77;100.00
55032;BME280;40928;51.076;7.950;2023-01-09T06:33:19;95244.81;;;3.88;100.00
55032;BME280;40928;51.076;7.950;2023-01-09T06:35:45;95239.69;;;3.81;100.00
55032;BME280;40928;51.076;7.950;2023-01-09T06:38:10;95246.66;;;3.87;100.00
55032;BME280;40928;51.076;7.950;2023-01-09T06:40:36;95243.13;;;3.81;100.00
55032;BME280;40928;51.076;7.950;2023-01-09T06:43:02;95245.78;;;3.81;100.00
55032;BME280;40928;51.076;7.950;2023-01-09T06:45:28;95249.19;;;3.82;100.00
55032;BME280;40928;51.076;7.950;2023-01-09T06:47:53;95248.41;;;3.81;100.00
55032;BME280;40928;51.076;7.950;2023-01-09T06:50:20;95248.34;;;3.93;100.00
55032;BME280;40928;51.076;7.950;2023-01-09T06:52:47;95242.88;;;3.83;100.00
55032;BME280;40928;51.076;7.950;2023-01-09T06:55:14;95252.19;;;3.86;100.00
55032;BME280;40928;51.076;7.950;2023-01-09T06:57:42;95252.75;;;3.88;100.00
55032;BME280;40928;51.076;7.950;2023-01-09T07:00:08;95253.13;;;3.79;100.00
55032;BME280;40928;51.076;7.950;2023-01-09T07:02:34;95256.47;;;3.75;100.00
55032;BME280;40928;51.076;7.950;2023-01-09T07:05:01;95262.50;;;3.87;100.00
55032;BME280;40928;51.076;7.950;2023-01-09T07:07:27;95260.09;;;3.86;100.00
55032;BME280;40928;51.076;7.950;2023-01-09T07:09:53;95261.59;;;3.81;100.00
55032;BME280;40928;51.076;7.950;2023-01-09T07:12:18;95262.41;;;3.82;100.00
55032;BME280;40928;51.076;7.950;2023-01-09T07:14:45;95266.31;;;3.79;100.00
55032;BME280;40928;51.076;7.950;2023-01-09T07:17:14;95257.78;;;3.72;100.00
55032;BME280;40928;51.076;7.950;2023-01-09T07:19:40;95264.81;;;3.84;100.00
55032;BME280;40928;51.076;7.950;2023-01-09T07:22:06;95270.00;;;3.78;100.00
55032;BME280;40928;51.076;7.950;2023-01-09T07:24:32;95276.41;;;3.83;100.00
55032;BME280;40928;51.076;7.950;2023-01-09T07:26:58;95276.41;;;3.83;100.00
55032;BME280;40928;51.076;7.950;2023-01-09T07:29:23;95282.97;;;3.80;100.00
55032;BME280;40928;51.076;7.950;2023-01-09T07:31:49;95277.13;;;3.78;100.00
55032;BME280;40928;51.076;7.950;2023-01-09T07:34:15;95272.78;;;3.72;100.00
55032;BME280;40928;51.076;7.950;2023-01-09T07:36:40;95287.84;;;3.71;100.00
55032;BME280;40928;51.076;7.950;2023-01-09T07:39:06;95283.69;;;3.75;100.00
55032;BME280;40928;51.076;7.950;2023-01-09T07:41:38;95278.41;;;3.75;100.00
55032;BME280;40928;51.076;7.950;2023-01-09T07:44:08;95281.69;;;3.83;100.00
55032;BME280;40928;51.076;7.950;2023-01-09T07:46:33;95281.53;;;3.72;100.00
55032;BME280;40928;51.076;7.950;2023-01-09T07:48:59;95289.69;;;3.71;100.00
55032;BME280;40928;51.076;7.950;2023-01-09T07:51:25;95291.06;;;3.73;100.00
55032;BME280;40928;51.076;7.950;2023-01-09T07:53:51;95296.03;;;3.87;100.00
55032;BME280;40928;51.076;7.950;2023-01-09T07:56:16;95293.19;;;3.76;100.00
55032;BME280;40928;51.076;7.950;2023-01-09T07:58:42;95298.16;;;3.90;100.00
55032;BME280;40928;51.076;7.950;2023-01-09T08:01:08;95292.00;;;3.84;100.00
55032;BME280;40928;51.076;7.950;2023-01-09T08:03:34;95285.28;;;3.76;100.00
55032;BME280;40928;51.076;7.950;2023-01-09T08:06:00;95300.00;;;3.72;100.00
55032;BME280;40928;51.076;7.950;2023-01-09T08:08:26;95293.69;;;3.73;100.00
55032;BME280;40928;51.076;7.950;2023-01-09T08:10:51;95293.69;;;3.73;100.00
55032;BME280;40928;51.076;7.950;2023-01-09T08:13:17;95294.91;;;3.83;100.00
55032;BME280;40928;51.076;7.950;2023-01-09T08:15:43;95287.06;;;3.88;100.00
55032;BME280;40928;51.076;7.950;2023-01-09T08:18:08;95304.41;;;3.84;100.00
55032;BME280;40928;51.076;7.950;2023-01-09T08:20:34;95295.22;;;3.86;100.00
55032;BME280;40928;51.076;7.950;2023-01-09T08:23:00;95312.56;;;3.82;100.00
55032;BME280;40928;51.076;7.950;2023-01-09T08:25:25;95300.03;;;3.89;100.00
55032;BME280;40928;51.076;7.950;2023-01-09T08:27:51;95312.03;;;3.97;100.00
55032;BME280;40928;51.076;7.950;2023-01-09T08:30:17;95321.16;;;3.89;100.00
55032;BME280;40928;51.076;7.950;2023-01-09T08:32:48;95312.34;;;3.84;100.00
55032;BME280;40928;51.076;7.950;2023-01-09T08:35:22;95317.84;;;3.82;100.00
55032;BME280;40928;51.076;7.950;2023-01-09T08:38:11;95320.44;;;3.94;100.00
55032;BME280;40928;51.076;7.950;2023-01-09T08:40:37;95309.66;;;3.95;100.00
55032;BME280;40928;51.076;7.950;2023-01-09T08:43:29;95319.44;;;3.83;100.00
55032;BME280;40928;51.076;7.950;2023-01-09T08:46:47;95318.09;;;3.80;100.00
55032;BME280;40928;51.076;7.950;2023-01-09T08:49:37;95300.69;;;3.96;100.00
55032;BME280;40928;51.076;7.950;2023-01-09T08:52:04;95314.94;;;3.95;100.00
55032;BME280;40928;51.076;7.950;2023-01-09T08:54:30;95332.03;;;3.93;100.00
55032;BME280;40928;51.076;7.950;2023-01-09T08:56:55;95325.50;;;3.95;100.00
55032;BME280;40928;51.076;7.950;2023-01-09T08:59:21;95325.38;;;3.90;100.00
55032;BME280;40928;51.076;7.950;2023-01-09T09:01:47;95319.16;;;4.14;100.00
55032;BME280;40928;51.076;7.950;2023-01-09T09:04:12;95318.28;;;4.08;100.00
55032;BME280;40928;51.076;7.950;2023-01-09T09:06:38;95319.56;;;4.05;100.00
55032;BME280;40928;51.076;7.950;2023-01-09T09:09:03;95319.88;;;4.09;100.00
55032;BME280;40928;51.076;7.950;2023-01-09T09:11:32;95322.28;;;4.10;100.00
55032;BME280;40928;51.076;7.950;2023-01-09T09:13:58;95319.16;;;4.14;100.00
55032;BME280;40928;51.076;7.950;2023-01-09T09:16:25;95319.47;;;4.17;100.00
55032;BME280;40928;51.076;7.950;2023-01-09T09:18:50;95321.81;;;4.14;100.00
55032;BME280;40928;51.076;7.950;2023-01-09T09:21:16;95316.38;;;4.03;100.00
55032;BME280;40928;51.076;7.950;2023-01-09T09:23:42;95317.25;;;4.09;100.00
55032;BME280;40928;51.076;7.950;2023-01-09T09:26:09;95320.22;;;4.13;100.00
55032;BME280;40928;51.076;7.950;2023-01-09T09:28:34;95323.09;;;4.11;100.00
55032;BME280;40928;51.076;7.950;2023-01-09T09:31:03;95326.28;;;4.13;100.00
55032;BME280;40928;51.076;7.950;2023-01-09T09:33:29;95333.56;;;4.23;100.00
55032;BME280;40928;51.076;7.950;2023-01-09T09:35:57;95333.25;;;4.36;100.00
55032;BME280;40928;51.076;7.950;2023-01-09T09:38:22;95336.06;;;4.30;100.00
55032;BME280;40928;51.076;7.950;2023-01-09T09:47:51;95355.94;;;4.32;100.00
55032;BME280;40928;51.076;7.950;2023-01-09T09:55:39;95352.25;;;4.33;100.00
55032;BME280;40928;51.076;7.950;2023-01-09T09:58:33;95362.97;;;4.26;100.00
55032;BME280;40928;51.076;7.950;2023-01-09T10:00:55;95352.25;;;4.33;100.00
55032;BME280;40928;51.076;7.950;2023-01-09T10:03:26;95354.72;;;4.23;100.00
55032;BME280;40928;51.076;7.950;2023-01-09T10:05:57;95355.13;;;4.15;100.00
55032;BME280;40928;51.076;7.950;2023-01-09T10:11:02;95356.72;;;4.33;100.00
55032;BME280;40928;51.076;7.950;2023-01-09T10:13:28;95364.16;;;4.36;100.00
55032;BME280;40928;51.076;7.950;2023-01-09T10:19:36;95364.66;;;4.33;100.00
55032;BME280;40928;51.076;7.950;2023-01-09T10:33:15;95368.34;;;4.49;100.00
55032;BME280;40928;51.076;7.950;2023-01-09T10:38:39;95359.03;;;4.46;100.00
55032;BME280;40928;51.076;7.950;2023-01-09T10:41:13;95374.66;;;4.48;100.00
55032;BME280;40928;51.076;7.950;2023-01-09T10:43:48;95356.97;;;4.48;100.00
55032;BME280;40928;51.076;7.950;2023-01-09T10:46:24;95350.78;;;4.42;100.00
55032;BME280;40928;51.076;7.950;2023-01-09T10:48:55;95350.41;;;4.51;100.00
55032;BME280;40928;51.076;7.950;2023-01-09T10:51:28;95346.16;;;4.50;100.00
55032;BME280;40928;51.076;7.950;2023-01-09T10:53:56;95357.53;;;4.50;100.00
55032;BME280;40928;51.076;7.950;2023-01-09T10:56:32;95354.78;;;4.45;100.00
55032;BME280;40928;51.076;7.950;2023-01-09T10:59:01;95350.78;;;4.42;100.00
55032;BME280;40928;51.076;7.950;2023-01-09T11:01:29;95354.31;;;4.48;100.00
55032;BME280;40928;51.076;7.950;2023-01-09T11:03:56;95346.22;;;4.55;100.00
55032;BME280;40928;51.076;7.950;2023-01-09T11:06:43;95353.09;;;4.56;100.00
55032;BME280;40928;51.076;7.950;2023-01-09T11:09:10;95348.53;;;4.68;100.00
55032;BME280;40928;51.076;7.950;2023-01-09T11:11:38;95348.78;;;4.67;100.00
55032;BME280;40928;51.076;7.950;2023-01-09T11:14:16;95353.41;;;4.60;100.00
55032;BME280;40928;51.076;7.950;2023-01-09T11:17:02;95351.91;;;4.64;100.00
55032;BME280;40928;51.076;7.950;2023-01-09T11:22:07;95361.84;;;4.56;100.00
55032;BME280;40928;51.076;7.950;2023-01-09T11:24:33;95362.94;;;4.61;100.00
55032;BME280;40928;51.076;7.950;2023-01-09T11:29:36;95361.69;;;4.63;100.00
55032;BME280;40928;51.076;7.950;2023-01-09T11:32:02;95365.69;;;4.66;100.00
55032;BME280;40928;51.076;7.950;2023-01-09T11:34:31;95371.84;;;4.71;100.00
55032;BME280;40928;51.076;7.950;2023-01-09T11:37:07;95363.72;;;4.78;100.00
55032;BME280;40928;51.076;7.950;2023-01-09T11:39:36;95370.00;;;4.72;100.00
55032;BME280;40928;51.076;7.950;2023-01-09T11:42:08;95378.09;;;4.65;100.00
55032;BME280;40928;51.076;7.950;2023-01-09T11:44:41;95370.66;;;4.62;100.00
55032;BME280;40928;51.076;7.950;2023-01-09T11:47:23;95375.13;;;4.62;100.00
55032;BME280;40928;51.076;7.950;2023-01-09T11:50:07;95375.84;;;4.57;100.00
55032;BME280;40928;51.076;7.950;2023-01-09T11:52:33;95381.72;;;4.59;100.00
55032;BME280;40928;51.076;7.950;2023-01-09T11:55:01;95376.72;;;4.63;100.00
55032;BME280;40928;51.076;7.950;2023-01-09T11:57:30;95389.72;;;4.64;100.00
55032;BME280;40928;51.076;7.950;2023-01-09T12:00:00;95390.06;;;4.51;100.00
55032;BME280;40928;51.076;7.950;2023-01-09T12:05:00;95394.53;;;4.50;100.00
55032;BME280;40928;51.076;7.950;2023-01-09T12:07:45;95389.81;;;4.52;100.00
55032;BME280;40928;51.076;7.950;2023-01-09T12:22:10;95401.19;;;4.70;100.00
55032;BME280;40928;51.076;7.950;2023-01-09T12:28:56;95402.34;;;4.79;100.00
55032;BME280;40928;51.076;7.950;2023-01-09T12:40:25;95398.66;;;4.97;100.00
55032;BME280;40928;51.076;7.950;2023-01-09T12:48:38;95409.09;;;5.04;100.00
55032;BME280;40928;51.076;7.950;2023-01-09T12:51:17;95411.66;;;4.99;100.00
55032;BME280;40928;51.076;7.950;2023-01-09T12:54:04;95426.47;;;5.00;100.00
55032;BME280;40928;51.076;7.950;2023-01-09T12:56:39;95412.28;;;4.89;100.00
55032;BME280;40928;51.076;7.950;2023-01-09T12:59:20;95417.50;;;4.84;100.00
55032;BME280;40928;51.076;7.950;2023-01-09T13:02:08;95425.03;;;4.75;100.00
55032;BME280;40928;51.076;7.950;2023-01-09T13:04:47;95422.94;;;4.77;100.00
55032;BME280;40928;51.076;7.950;2023-01-09T13:07:23;95423.22;;;4.76;100.00
55032;BME280;40928;51.076;7.950;2023-01-09T13:10:07;95429.63;;;4.80;100.00
55032;BME280;40928;51.076;7.950;2023-01-09T13:12:38;95425.94;;;4.81;100.00
55032;BME280;40928;51.076;7.950;2023-01-09T13:15:24;95437.63;;;4.85;100.00
55032;BME280;40928;51.076;7.950;2023-01-09T13:18:09;95435.22;;;4.83;100.00
55032;BME280;40928;51.076;7.950;2023-01-09T13:20:48;95443.94;;;4.84;100.00
55032;BME280;40928;51.076;7.950;2023-01-09T13:25:59;95438.59;;;4.79;100.00
55032;BME280;40928;51.076;7.950;2023-01-09T13:28:41;95437.13;;;4.88;100.00
55032;BME280;40928;51.076;7.950;2023-01-09T13:34:12;95448.53;;;4.88;100.00
55032;BME280;40928;51.076;7.950;2023-01-09T13:37:03;95453.31;;;4.92;100.00
55032;BME280;40928;51.076;7.950;2023-01-09T13:39:31;95450.44;;;4.93;100.00
55032;BME280;40928;51.076;7.950;2023-01-09T13:41:59;95455.50;;;4.95;100.00
55032;BME280;40928;51.076;7.950;2023-01-09T13:44:46;95462.63;;;4.94;100.00
55032;BME280;40928;51.076;7.950;2023-01-09T13:47:21;95465.28;;;4.94;100.00
55032;BME280;40928;51.076;7.950;2023-01-09T13:59:43;95479.31;;;4.78;100.00
55032;BME280;40928;51.076;7.950;2023-01-09T14:05:11;95482.50;;;4.80;100.00
55032;BME280;40928;51.076;7.950;2023-01-09T14:07:46;95486.19;;;4.79;100.00
55032;BME280;40928;51.076;7.950;2023-01-09T14:10:29;95495.66;;;4.75;100.00
55032;BME280;40928;51.076;7.950;2023-01-09T14:12:57;95502.53;;;4.76;100.00
55032;BME280;40928;51.076;7.950;2023-01-09T14:15:36;95516.00;;;4.74;100.00
55032;BME280;40928;51.076;7.950;2023-01-09T14:18:14;95515.44;;;4.72;100.00
55032;BME280;40928;51.076;7.950;2023-01-09T14:20:44;95523.59;;;4.70;100.00
55032;BME280;40928;51.076;7.950;2023-01-09T14:24:08;95538.00;;;4.63;100.00
55032;BME280;40928;51.076;7.950;2023-01-09T14:26:16;95544.34;;;4.62;100.00
55032;BME280;40928;51.076;7.950;2023-01-09T14:28:42;95537.78;;;4.64;100.00
55032;BME280;40928;51.076;7.950;2023-01-09T14:31:09;95540.31;;;4.59;100.00
55032;BME280;40928;51.076;7.950;2023-01-09T14:33:35;95543.75;;;4.60;100.00
55032;BME280;40928;51.076;7.950;2023-01-09T14:36:16;95550.66;;;4.61;100.00
55032;BME280;40928;51.076;7.950;2023-01-09T14:38:52;95562.63;;;4.63;100.00
55032;BME280;40928;51.076;7.950;2023-01-09T14:41:36;95561.34;;;4.66;100.00
55032;BME280;40928;51.076;7.950;2023-01-09T14:44:26;95570.44;;;4.58;100.00
55032;BME280;40928;51.076;7.950;2023-01-09T14:46:53;95576.06;;;4.62;100.00
55032;BME280;40928;51.076;7.950;2023-01-09T14:49:33;95585.38;;;4.64;100.00
55032;BME280;40928;51.076;7.950;2023-01-09T14:52:04;95589.84;;;4.64;100.00
55032;BME280;40928;51.076;7.950;2023-01-09T14:54:34;95598.75;;;4.57;100.00
55032;BME280;40928;51.076;7.950;2023-01-09T14:57:01;95605.06;;;4.56;100.00
55032;BME280;40928;51.076;7.950;2023-01-09T14:59:27;95618.50;;;4.55;100.00
55032;BME280;40928;51.076;7.950;2023-01-09T15:01:54;95622.28;;;4.59;100.00
55032;BME280;40928;51.076;7.950;2023-01-09T15:04:48;95626.91;;;4.52;100.00
55032;BME280;40928;51.076;7.950;2023-01-09T15:07:21;95626.91;;;4.52;100.00
55032;BME280;40928;51.076;7.950;2023-01-09T15:09:50;95629.91;;;4.55;100.00
55032;BME280;40928;51.076;7.950;2023-01-09T15:12:18;95634.59;;;4.53;100.00
55032;BME280;40928;51.076;7.950;2023-01-09T15:14:46;95647.59;;;4.55;100.00